createdAt,value
2018-07-01T00:01:01.623Z,15.80
2018-07-01T00:03:30.531Z,15.80
2018-07-01T00:05:59.483Z,15.60
2018-07-01T00:08:28.469Z,15.70
2018-07-01T00:10:57.375Z,15.80
2018-07-01T00:13:26.286Z,15.70
2018-07-01T00:15:55.229Z,15.70
2018-07-01T00:18:24.151Z,15.70
2018-07-01T00:20:53.054Z,15.60
2018-07-01T00:23:22.038Z,15.70
2018-07-01T00:25:50.966Z,15.70
2018-07-01T00:28:19.867Z,15.60
2018-07-01T00:30:48.783Z,15.60
2018-07-01T00:33:17.667Z,15.70
2018-07-01T00:35:46.633Z,15.60
2018-07-01T00:40:44.050Z,15.50
2018-07-01T00:43:12.958Z,15.60
2018-07-01T00:45:41.860Z,15.50
2018-07-01T00:48:10.748Z,15.40
2018-07-01T00:50:39.682Z,15.30
2018-07-01T00:53:08.598Z,15.20
2018-07-01T00:55:37.522Z,15.10
2018-07-01T00:58:06.431Z,15.00
2018-07-01T01:00:35.377Z,15.10
2018-07-01T01:03:04.355Z,15.10
2018-07-01T01:05:33.709Z,15.00
2018-07-01T01:08:02.601Z,14.90
2018-07-01T01:10:31.549Z,15.00
2018-07-01T01:13:00.546Z,14.90
2018-07-01T01:15:29.439Z,14.90
2018-07-01T01:17:58.439Z,14.80
2018-07-01T01:20:27.386Z,14.80
2018-07-01T01:22:56.285Z,14.90
2018-07-01T01:25:25.197Z,14.90
2018-07-01T01:27:54.107Z,14.90
2018-07-01T01:30:23.022Z,14.70
2018-07-01T01:32:52.002Z,14.70
2018-07-01T01:35:20.995Z,14.70
2018-07-01T01:37:49.930Z,14.70
2018-07-01T01:40:21.786Z,14.70
2018-07-01T01:42:56.117Z,14.60
2018-07-01T01:45:46.027Z,14.60
2018-07-01T01:48:22.284Z,14.50
2018-07-01T01:51:00.104Z,14.40
2018-07-01T01:56:50.661Z,14.30
2018-07-01T01:59:24.945Z,14.00
2018-07-01T02:01:58.333Z,14.10
2018-07-01T02:04:34.165Z,14.10
2018-07-01T02:07:08.915Z,14.00
2018-07-01T02:09:38.526Z,14.00
2018-07-01T02:12:09.681Z,13.90
2018-07-01T02:14:45.990Z,13.90
2018-07-01T02:17:19.447Z,13.80
2018-07-01T02:19:48.565Z,13.80
2018-07-01T02:22:21.174Z,13.70
2018-07-01T02:24:51.194Z,13.60
2018-07-01T02:27:20.159Z,13.60
2018-07-01T02:29:49.136Z,13.60
2018-07-01T02:32:18.039Z,13.50
2018-07-01T02:34:46.910Z,13.50
2018-07-01T02:37:15.783Z,13.40
2018-07-01T02:39:44.659Z,13.50
2018-07-01T02:42:13.561Z,13.40
2018-07-01T02:44:42.544Z,13.40
2018-07-01T02:47:11.467Z,13.20
2018-07-01T02:49:40.344Z,13.30
2018-07-01T02:52:09.259Z,13.20
2018-07-01T02:54:38.223Z,13.20
2018-07-01T02:57:07.094Z,13.20
2018-07-01T02:59:36.045Z,13.20
2018-07-01T03:02:04.954Z,13.10
2018-07-01T03:04:33.868Z,13.00
2018-07-01T03:07:02.726Z,13.00
2018-07-01T03:09:31.622Z,13.00
2018-07-01T03:12:00.499Z,12.90
2018-07-01T03:14:29.373Z,12.90
2018-07-01T03:16:58.274Z,12.80
2018-07-01T03:19:27.171Z,12.70
2018-07-01T03:21:56.288Z,12.70
2018-07-01T03:24:25.268Z,12.70
2018-07-01T03:26:54.147Z,12.70
2018-07-01T03:29:23.046Z,12.70
2018-07-01T03:31:51.955Z,12.70
2018-07-01T03:34:20.879Z,12.70
2018-07-01T03:36:49.973Z,12.70
2018-07-01T03:39:18.874Z,12.70
2018-07-01T03:41:47.945Z,12.70
2018-07-01T03:44:16.837Z,12.50
2018-07-01T03:46:45.726Z,12.50
2018-07-01T03:49:14.631Z,12.50
2018-07-01T03:51:43.791Z,12.70
2018-07-01T03:54:12.678Z,12.70
2018-07-01T03:56:41.586Z,12.80
2018-07-01T03:59:10.511Z,12.90
2018-07-01T04:01:40.270Z,13.00
2018-07-01T04:04:09.177Z,13.00
2018-07-01T04:06:38.086Z,12.90
2018-07-01T04:09:09.418Z,13.00
2018-07-01T04:11:38.326Z,11.70
2018-07-01T04:14:07.334Z,13.00
2018-07-01T04:16:36.506Z,12.90
2018-07-01T04:19:05.443Z,13.10
2018-07-01T04:21:34.366Z,13.10
2018-07-01T04:24:03.304Z,13.20
2018-07-01T04:26:32.463Z,13.30
2018-07-01T04:29:01.379Z,13.30
2018-07-01T04:31:30.271Z,13.40
2018-07-01T04:33:59.260Z,13.50
2018-07-01T04:36:28.198Z,13.50
2018-07-01T04:38:57.098Z,13.60
2018-07-01T04:41:25.966Z,13.70
2018-07-01T04:43:54.967Z,13.70
2018-07-01T04:46:23.856Z,13.70
2018-07-01T04:48:52.798Z,13.90
2018-07-01T04:51:21.654Z,13.90
2018-07-01T04:53:50.592Z,14.00
2018-07-01T04:56:20.003Z,14.00
2018-07-01T04:58:48.894Z,14.20
2018-07-01T05:01:17.857Z,14.30
2018-07-01T05:03:46.747Z,14.40
2018-07-01T05:06:15.666Z,14.30
2018-07-01T05:08:44.578Z,14.30
2018-07-01T05:11:13.466Z,14.40
2018-07-01T05:13:42.329Z,14.40
2018-07-01T05:16:11.214Z,14.50
2018-07-01T05:18:40.118Z,14.50
2018-07-01T05:21:09.017Z,14.50
2018-07-01T05:23:37.882Z,14.60
2018-07-01T05:26:06.804Z,14.80
2018-07-01T05:28:35.671Z,14.70
2018-07-01T05:31:04.566Z,14.90
2018-07-01T05:33:33.434Z,15.10
2018-07-01T05:36:02.376Z,15.20
2018-07-01T05:38:31.237Z,15.30
2018-07-01T05:41:00.168Z,15.30
2018-07-01T05:43:29.045Z,15.30
2018-07-01T05:45:57.955Z,15.40
2018-07-01T05:48:26.838Z,15.50
2018-07-01T05:53:24.215Z,15.60
2018-07-01T05:55:53.154Z,15.70
2018-07-01T06:00:50.646Z,15.80
2018-07-01T06:03:19.562Z,15.90
2018-07-01T06:05:48.490Z,16.00
2018-07-01T06:08:17.388Z,16.00
2018-07-01T06:10:46.322Z,16.00
2018-07-01T06:13:15.318Z,16.10
2018-07-01T06:15:44.222Z,16.20
2018-07-01T06:18:13.123Z,16.20
2018-07-01T06:20:42.014Z,16.40
2018-07-01T06:23:10.898Z,16.50
2018-07-01T06:25:39.786Z,16.50
2018-07-01T06:28:09.357Z,16.40
2018-07-01T06:30:38.350Z,16.50
2018-07-01T06:33:07.234Z,16.50
2018-07-01T06:35:36.127Z,16.60
2018-07-01T06:38:05.078Z,16.80
2018-07-01T06:40:34.081Z,16.90
2018-07-01T06:43:02.953Z,17.00
2018-07-01T06:45:31.852Z,17.10
2018-07-01T06:48:00.762Z,17.20
2018-07-01T06:50:29.662Z,17.40
2018-07-01T06:52:58.558Z,17.50
2018-07-01T06:55:27.471Z,17.50
2018-07-01T06:57:56.359Z,17.70
2018-07-01T07:00:25.294Z,17.70
2018-07-01T07:02:54.194Z,17.80
2018-07-01T07:05:23.087Z,17.90
2018-07-01T07:07:52.261Z,17.90
2018-07-01T07:10:21.233Z,18.00
2018-07-01T07:12:50.372Z,18.20
2018-07-01T07:15:19.367Z,18.40
2018-07-01T07:17:48.346Z,18.40
2018-07-01T07:20:17.237Z,18.40
2018-07-01T07:22:46.118Z,18.50
2018-07-01T07:25:15.099Z,18.70
2018-07-01T07:27:45.228Z,18.90
2018-07-01T07:30:14.263Z,19.00
2018-07-01T07:32:43.193Z,19.10
2018-07-01T07:35:12.091Z,19.10
2018-07-01T07:37:40.991Z,19.10
2018-07-01T07:40:09.894Z,19.10
2018-07-01T07:42:38.901Z,19.10
2018-07-01T07:45:07.856Z,19.10
2018-07-01T07:47:36.735Z,19.10
2018-07-01T07:50:05.674Z,19.00
2018-07-01T07:52:34.570Z,19.20
2018-07-01T07:55:03.498Z,19.40
2018-07-01T07:57:32.423Z,19.50
2018-07-01T08:00:01.335Z,19.70
2018-07-01T08:02:30.209Z,19.80
2018-07-01T08:04:59.134Z,19.80
2018-07-01T08:07:28.105Z,19.80
2018-07-01T08:12:30.194Z,20.80
2018-07-01T08:14:59.082Z,19.80
2018-07-01T08:17:28.009Z,20.00
2018-07-01T08:19:56.919Z,20.20
2018-07-01T08:22:25.850Z,20.40
2018-07-01T08:24:54.759Z,20.10
2018-07-01T08:27:23.700Z,20.00
2018-07-01T08:29:52.572Z,20.10
2018-07-01T08:32:21.766Z,20.20
2018-07-01T08:34:50.654Z,20.50
2018-07-01T08:37:19.598Z,20.50
2018-07-01T08:39:48.551Z,20.30
2018-07-01T08:42:25.607Z,20.40
2018-07-01T08:44:55.262Z,20.60
2018-07-01T08:47:24.342Z,20.50
2018-07-01T08:49:53.417Z,20.50
2018-07-01T08:52:22.416Z,20.70
2018-07-01T08:54:51.334Z,20.90
2018-07-01T09:02:19.562Z,21.20
2018-07-01T09:07:17.663Z,21.20
2018-07-01T09:09:47.062Z,21.30
2018-07-01T09:12:16.032Z,21.20
2018-07-01T09:14:45.070Z,20.90
2018-07-01T09:17:14.040Z,21.20
2018-07-01T09:19:42.903Z,21.70
2018-07-01T09:22:11.932Z,22.00
2018-07-01T09:24:40.809Z,21.90
2018-07-01T09:27:09.819Z,21.70
2018-07-01T09:29:44.046Z,22.00
2018-07-01T09:32:12.929Z,22.10
2018-07-01T09:34:42.561Z,22.30
2018-07-01T09:37:11.497Z,22.30
2018-07-01T09:39:40.399Z,22.00
2018-07-01T09:42:09.267Z,22.10
2018-07-01T09:44:38.157Z,22.30
2018-07-01T09:47:07.069Z,22.50
2018-07-01T09:49:35.958Z,22.50
2018-07-01T09:52:04.886Z,22.80
2018-07-01T09:54:33.759Z,22.70
2018-07-01T09:57:02.668Z,22.70
2018-07-01T09:59:31.548Z,23.00
2018-07-01T10:02:00.476Z,23.20
2018-07-01T10:04:29.402Z,23.20
2018-07-01T10:06:58.310Z,23.10
2018-07-01T10:09:27.198Z,23.20
2018-07-01T10:11:56.090Z,23.40
2018-07-01T10:14:25.035Z,23.50
2018-07-01T10:16:53.967Z,23.60
2018-07-01T10:19:22.862Z,23.50
2018-07-01T10:21:51.797Z,23.30
2018-07-01T10:24:20.736Z,23.40
2018-07-01T10:26:49.781Z,23.50
2018-07-01T10:29:18.671Z,23.90
2018-07-01T10:31:47.607Z,24.00
2018-07-01T10:36:45.290Z,24.10
2018-07-01T10:39:15.625Z,23.90
2018-07-01T10:41:44.506Z,24.20
2018-07-01T10:44:13.575Z,24.30
2018-07-01T10:46:42.488Z,24.40
2018-07-01T10:49:11.381Z,24.40
2018-07-01T10:51:40.408Z,24.40
2018-07-01T10:54:09.229Z,24.70
2018-07-01T10:56:38.117Z,24.60
2018-07-01T10:59:07.038Z,25.10
2018-07-01T11:01:35.954Z,25.10
2018-07-01T11:04:04.878Z,25.20
2018-07-01T11:11:30.766Z,25.00
2018-07-01T11:13:59.649Z,24.90
2018-07-01T11:16:28.570Z,24.70
2018-07-01T11:18:57.470Z,24.80
2018-07-01T11:21:26.484Z,25.10
2018-07-01T11:23:55.370Z,25.60
2018-07-01T11:26:24.390Z,25.70
2018-07-01T11:28:53.360Z,25.90
2018-07-01T11:31:22.261Z,26.10
2018-07-01T11:33:51.162Z,25.80
2018-07-01T11:36:20.307Z,26.20
2018-07-01T11:38:49.280Z,26.40
2018-07-01T11:41:18.147Z,26.30
2018-07-01T11:43:47.010Z,26.30
2018-07-01T11:46:15.950Z,26.50
2018-07-01T11:48:44.829Z,26.50
2018-07-01T11:51:13.778Z,26.60
2018-07-01T11:53:42.654Z,26.90
2018-07-01T11:56:11.558Z,27.00
2018-07-01T11:58:40.453Z,26.60
2018-07-01T12:01:09.363Z,26.70
2018-07-01T12:03:38.287Z,26.70
2018-07-01T12:06:07.219Z,26.60
2018-07-01T12:08:36.159Z,27.00
2018-07-01T12:11:05.026Z,26.40
2018-07-01T12:13:33.958Z,26.90
2018-07-01T12:16:02.874Z,27.20
2018-07-01T12:18:31.774Z,27.40
2018-07-01T12:21:00.666Z,27.00
2018-07-01T12:23:29.578Z,27.10
2018-07-01T12:25:58.446Z,27.10
2018-07-01T12:28:27.330Z,27.10
2018-07-01T12:30:56.194Z,27.60
2018-07-01T12:33:25.158Z,28.10
2018-07-01T12:35:54.050Z,27.70
2018-07-01T12:38:22.959Z,28.20
2018-07-01T12:40:51.877Z,28.30
2018-07-01T12:43:20.774Z,28.60
2018-07-01T12:45:49.666Z,29.10
2018-07-01T12:48:18.604Z,28.90
2018-07-01T12:50:47.502Z,28.40
2018-07-01T12:53:16.403Z,27.80
2018-07-01T12:55:45.401Z,27.40
2018-07-01T12:58:14.657Z,27.70
2018-07-01T13:03:12.054Z,28.10
2018-07-01T13:05:41.015Z,28.10
2018-07-01T13:08:09.894Z,28.70
2018-07-01T13:10:38.766Z,29.00
2018-07-01T13:13:07.798Z,29.00
2018-07-01T13:15:36.954Z,29.10
2018-07-01T13:18:06.276Z,29.80
2018-07-01T13:20:35.146Z,29.80
2018-07-01T13:23:04.031Z,29.70
2018-07-01T13:25:32.898Z,29.00
2018-07-01T13:28:01.831Z,29.30
2018-07-01T13:30:30.749Z,29.30
2018-07-01T13:32:59.676Z,29.60
2018-07-01T13:35:28.599Z,30.10
2018-07-01T13:37:57.494Z,29.50
2018-07-01T13:40:26.397Z,29.50
2018-07-01T13:42:55.410Z,30.30
2018-07-01T13:45:24.306Z,30.40
2018-07-01T13:47:53.339Z,30.50
2018-07-01T13:50:22.339Z,30.20
2018-07-01T13:52:51.338Z,30.50
2018-07-01T13:55:20.287Z,30.70
2018-07-01T13:57:49.279Z,31.50
2018-07-01T14:00:18.150Z,30.20
2018-07-01T14:02:47.074Z,30.40
2018-07-01T14:05:16.051Z,30.10
2018-07-01T14:07:44.952Z,30.80
2018-07-01T14:10:13.846Z,30.80
2018-07-01T14:12:42.718Z,30.00
2018-07-01T14:17:40.097Z,30.30
2018-07-01T14:20:10.295Z,30.50
2018-07-01T14:22:39.413Z,31.00
2018-07-01T14:25:09.054Z,31.30
2018-07-01T14:27:38.009Z,31.30
2018-07-01T14:30:07.338Z,30.80
2018-07-01T14:32:36.220Z,31.70
2018-07-01T14:35:05.134Z,31.60
2018-07-01T14:37:34.086Z,31.40
2018-07-01T14:40:02.978Z,31.30
2018-07-01T14:42:31.862Z,31.20
2018-07-01T14:45:00.733Z,31.60
2018-07-01T14:47:29.684Z,31.40
2018-07-01T14:49:58.546Z,30.90
2018-07-01T14:52:27.522Z,31.80
2018-07-01T14:54:56.571Z,32.30
2018-07-01T14:57:25.386Z,32.40
2018-07-01T14:59:54.254Z,32.40
2018-07-01T15:04:51.682Z,32.00
2018-07-01T15:07:20.638Z,31.40
2018-07-01T15:09:49.550Z,32.10
2018-07-01T15:12:18.406Z,32.30
2018-07-01T15:14:47.350Z,32.70
2018-07-01T15:17:16.226Z,32.40
2018-07-01T15:19:45.134Z,32.70
2018-07-01T15:22:13.999Z,33.00
2018-07-01T15:24:42.873Z,32.70
2018-07-01T15:27:11.753Z,32.10
2018-07-01T15:29:40.695Z,32.20
2018-07-01T15:34:38.317Z,31.90
2018-07-01T15:37:07.347Z,31.90
2018-07-01T15:39:36.242Z,32.40
2018-07-01T15:42:05.150Z,32.20
2018-07-01T15:44:34.130Z,32.10
2018-07-01T15:47:03.022Z,32.70
2018-07-01T15:49:31.922Z,33.20
2018-07-01T15:52:00.846Z,33.30
2018-07-01T15:54:29.767Z,32.70
2018-07-01T15:56:58.653Z,32.90
2018-07-01T15:59:27.613Z,33.00
2018-07-01T16:01:56.779Z,32.60
2018-07-01T16:04:25.786Z,32.90
2018-07-01T16:06:54.766Z,32.30
2018-07-01T16:09:23.779Z,31.90
2018-07-01T16:11:52.702Z,32.30
2018-07-01T16:14:21.618Z,33.10
2018-07-01T16:16:50.662Z,33.20
2018-07-01T16:19:19.560Z,33.50
2018-07-01T16:21:48.466Z,33.10
2018-07-01T16:24:17.362Z,33.70
2018-07-01T16:26:51.676Z,34.00
2018-07-01T16:29:20.612Z,34.00
2018-07-01T16:31:49.559Z,33.40
2018-07-01T16:34:18.471Z,32.90
2018-07-01T16:36:47.338Z,33.30
2018-07-01T16:41:44.715Z,33.60
2018-07-01T16:44:13.581Z,33.90
2018-07-01T16:46:42.437Z,33.70
2018-07-01T16:49:11.388Z,33.60
2018-07-01T16:51:40.318Z,33.90
2018-07-01T16:54:09.169Z,33.90
2018-07-01T16:56:38.039Z,33.90
2018-07-01T16:59:07.050Z,34.00
2018-07-01T17:01:35.930Z,34.00
2018-07-01T17:04:04.882Z,32.90
2018-07-01T17:06:33.768Z,33.20
2018-07-01T17:09:03.324Z,33.70
2018-07-01T17:11:32.204Z,33.30
2018-07-01T17:14:01.162Z,33.40
2018-07-01T17:16:30.142Z,33.70
2018-07-01T17:18:59.015Z,33.40
2018-07-01T17:21:27.920Z,33.10
2018-07-01T17:23:56.783Z,32.40
2018-07-01T17:26:25.703Z,32.50
2018-07-01T17:28:54.575Z,32.50
2018-07-01T17:31:28.810Z,31.90
2018-07-01T17:33:57.722Z,32.20
2018-07-01T17:36:26.814Z,32.70
2018-07-01T17:38:55.722Z,33.20
2018-07-01T17:41:24.758Z,33.10
2018-07-01T17:43:53.644Z,32.90
2018-07-01T17:46:22.603Z,31.80
2018-07-01T17:48:52.018Z,30.60
2018-07-01T17:51:20.938Z,29.40
2018-07-01T17:53:54.566Z,28.60
2018-07-01T17:56:23.821Z,28.90
2018-07-01T17:58:53.621Z,28.10
2018-07-01T18:01:22.538Z,27.30
2018-07-01T18:03:51.417Z,26.90
2018-07-01T18:06:20.441Z,26.60
2018-07-01T18:08:49.405Z,25.90
2018-07-01T18:11:18.412Z,25.50
2018-07-01T18:13:47.341Z,25.20
2018-07-01T18:16:16.348Z,24.60
2018-07-01T18:21:20.813Z,24.40
2018-07-01T18:24:11.126Z,24.30
2018-07-01T18:28:52.291Z,23.80
2018-07-01T18:31:08.938Z,23.70
2018-07-01T18:33:38.628Z,23.60
2018-07-01T18:38:37.038Z,23.30
2018-07-01T18:41:06.048Z,23.20
2018-07-01T18:43:34.926Z,23.00
2018-07-01T18:46:03.877Z,22.90
2018-07-01T18:48:32.810Z,22.80
2018-07-01T18:51:01.847Z,22.80
2018-07-01T18:53:30.794Z,22.70
2018-07-01T18:56:00.218Z,22.50
2018-07-01T18:58:29.114Z,22.40
2018-07-01T19:00:59.103Z,22.30
2018-07-01T19:03:28.002Z,22.30
2018-07-01T19:05:56.937Z,22.30
2018-07-01T19:08:25.825Z,22.20
2018-07-01T19:10:54.763Z,22.20
2018-07-01T19:13:23.663Z,22.00
2018-07-01T19:15:52.714Z,21.80
2018-07-01T19:18:21.659Z,21.80
2018-07-01T19:20:50.651Z,21.80
2018-07-01T19:23:19.558Z,21.60
2018-07-01T19:25:48.479Z,21.70
2018-07-01T19:28:17.380Z,21.50
2018-07-01T19:30:46.298Z,21.40
2018-07-01T19:33:15.199Z,21.30
2018-07-01T19:35:44.150Z,21.20
2018-07-01T19:38:13.067Z,21.10
2018-07-01T19:40:41.981Z,20.90
2018-07-01T19:43:11.003Z,20.90
2018-07-01T19:45:39.786Z,20.80
2018-07-01T19:48:08.671Z,20.80
2018-07-01T19:50:37.637Z,20.70
2018-07-01T19:53:06.535Z,20.80
2018-07-01T19:55:35.560Z,20.80
2018-07-01T19:58:04.571Z,20.60
2018-07-01T20:00:33.610Z,20.30
2018-07-01T20:03:02.483Z,20.20
2018-07-01T20:05:31.393Z,20.20
2018-07-01T20:08:00.307Z,20.20
2018-07-01T20:10:29.220Z,20.00
2018-07-01T20:12:58.239Z,20.00
2018-07-01T20:15:27.206Z,20.00
2018-07-01T20:17:56.148Z,19.80
2018-07-01T20:20:25.162Z,19.60
2018-07-01T20:22:54.073Z,19.50
2018-07-01T20:25:23.055Z,19.50
2018-07-01T20:27:52.013Z,19.30
2018-07-01T20:30:21.207Z,19.20
2018-07-01T20:35:18.646Z,19.10
2018-07-01T20:37:47.548Z,19.00
2018-07-01T20:40:16.538Z,19.00
2018-07-01T20:42:45.436Z,18.80
2018-07-01T20:45:14.491Z,18.80
2018-07-01T20:47:43.473Z,18.80
2018-07-01T20:50:12.479Z,18.80
2018-07-01T20:52:41.382Z,18.70
2018-07-01T20:55:10.342Z,18.70
2018-07-01T20:57:39.242Z,18.60
2018-07-01T21:00:08.162Z,18.40
2018-07-01T21:02:37.074Z,18.20
2018-07-01T21:05:06.056Z,18.00
2018-07-01T21:07:34.918Z,17.90
2018-07-01T21:10:03.924Z,18.00
2018-07-01T21:12:32.992Z,18.00
2018-07-01T21:15:01.888Z,17.90
2018-07-01T21:17:30.802Z,17.90
2018-07-01T21:19:59.709Z,17.90
2018-07-01T21:22:28.687Z,17.90
2018-07-01T21:24:58.590Z,17.80
2018-07-01T21:27:27.522Z,17.80
2018-07-01T21:29:56.390Z,17.70
2018-07-01T21:32:25.328Z,17.60
2018-07-01T21:34:54.261Z,17.70
2018-07-01T21:37:23.210Z,17.70
2018-07-01T21:39:52.183Z,17.60
2018-07-01T21:42:21.234Z,17.50
2018-07-01T21:44:50.141Z,17.50
2018-07-01T21:47:19.042Z,17.30
2018-07-01T21:49:48.015Z,17.30
2018-07-01T21:52:17.138Z,17.20
2018-07-01T21:54:46.074Z,17.10
2018-07-01T21:57:15.550Z,17.10
2018-07-01T21:59:44.552Z,17.00
2018-07-01T22:02:13.489Z,17.10
2018-07-01T22:04:42.379Z,17.10
2018-07-01T22:07:11.313Z,17.00
2018-07-01T22:09:40.320Z,17.10
2018-07-01T22:12:20.694Z,17.00
2018-07-01T22:15:00.962Z,16.90
2018-07-01T22:17:29.850Z,16.90
2018-07-01T22:19:58.834Z,16.80
2018-07-01T22:22:28.158Z,16.80
2018-07-01T22:24:57.014Z,16.70
2018-07-01T22:27:25.942Z,16.70
2018-07-01T22:29:54.898Z,16.70
2018-07-01T22:32:24.447Z,16.70
2018-07-01T22:34:53.380Z,16.60
2018-07-01T22:37:22.361Z,16.30
2018-07-01T22:39:51.378Z,16.30
2018-07-01T22:42:20.273Z,16.30
2018-07-01T22:44:49.196Z,16.20
2018-07-01T22:47:18.153Z,16.30
2018-07-01T22:52:15.585Z,16.40
2018-07-01T22:54:44.474Z,16.40
2018-07-01T22:57:13.377Z,16.20
2018-07-01T22:59:42.271Z,16.10
2018-07-01T23:03:17.266Z,16.00
2018-07-01T23:05:46.154Z,15.90
2018-07-01T23:08:15.079Z,15.90
2018-07-01T23:10:43.937Z,15.80
2018-07-01T23:13:12.847Z,15.90
2018-07-01T23:15:41.749Z,15.80
2018-07-01T23:18:10.666Z,15.90
2018-07-01T23:20:39.533Z,15.90
2018-07-01T23:23:08.498Z,15.90
2018-07-01T23:25:37.390Z,15.80
2018-07-01T23:28:06.281Z,15.80
2018-07-01T23:30:35.193Z,15.80
2018-07-01T23:33:04.053Z,15.60
2018-07-01T23:35:32.953Z,15.70
2018-07-01T23:38:01.941Z,15.70
2018-07-01T23:40:30.817Z,15.50
2018-07-01T23:42:59.681Z,15.50
2018-07-01T23:45:28.589Z,15.50
2018-07-01T23:47:57.671Z,15.50
2018-07-01T23:50:26.625Z,15.30
2018-07-01T23:52:55.514Z,15.30
2018-07-01T23:57:52.993Z,15.40
